aviador You're here:

KPDK Decoded Metar

PEACHTREE/DEKALB in GA, USA
Report Time2017-10-20 15:53:00
UTC Time2017-10-20 16:09:46
Flight Rules vfr VFR
Wind230° at 03 kt
W.Decomp.*RWY 21: 2.7 kt HW 1.3 kt RCW
RWY 27: 2.5 kt HW 1.7 kt LCW
RWY 16: 0.8 kt HW 2.9 kt RCW
W.Rank230° ranks 9
Current wind is below 230° avg. (6.5)
Visibility9999 m
Phenomena:N/A
Clouds:N/A
Expected CloudBase > 5,600 ft AGL from Temp-Dew spread
CeilingNone
Temp21°C (ISA +8)
Dew Point07°C (40% RH)
AAT19.2°C
QNH1026 hPa
Density Alt1,624 ft
Elevation991 ft
Report Wrong Elevation
Raw Report
METAR KPDK 201553Z 23003KT 10SM CLR 21/07 A3029 RMK AO2 SLP256 T02110067=

Extra information for KPDK:More info

Metar Taf Metar & Taf Last 4 Metars F.Rules Stats Wind Profile Meteogram Temp Stats Airport Information Weather charts Add Link Nearby VenuesMetar ALERT Operation Metar Decoded Social comments

AIRNAV info for KPDK